Terminal Aerodrome Forecast
Issued by NWS Blacksburg, VA

Current Version | Previous Version | Graphics & Text | Print | Product List | Glossary On
Versions: 1 2 3 4 5 6 7 8 9 10 11 12 13 14 15 16 17 18 19 20 21 22 23 24 25 26 27 28 29 30
292
FTUS41 KRNK 211748
TAFBLF
TAF
KBLF 211748Z 2118/2218 27008KT 6SM -SHRA BR SCT005 BKN050
      TEMPO 2118/2121 4SM SHRA BR BKN005
     FM212100 29009KT P6SM VCSH SCT015 BKN040
      TEMPO 2121/2123 BKN025
     FM212300 29005KT P6SM OVC025
     FM220400 29005KT P6SM OVC012
     FM220900 29005KT 5SM BR OVC008
     FM221300 30006KT P6SM OVC015
     FM221600 31008KT P6SM SKC=

USA.gov is the U.S. government's official web portal to all federal, state and local government web resources and services.